sensor_id;sensor_type;location;lat;lon;timestamp;P1;durP1;ratioP1;P2;durP2;ratioP2
49800;SDS011;35698;50.232;30.540;2023-05-10T00:07:39;7.36;;;3.43;;
49800;SDS011;35698;50.232;30.540;2023-05-10T00:19:43;3.67;;;3.13;;
49800;SDS011;35698;50.232;30.540;2023-05-10T00:20:46;6.89;;;3.91;;
49800;SDS011;35698;50.232;30.540;2023-05-10T00:21:58;8.73;;;4.54;;
49800;SDS011;35698;50.232;30.540;2023-05-10T00:23:02;6.17;;;3.79;;
49800;SDS011;35698;50.232;30.540;2023-05-10T00:24:12;7.93;;;4.04;;
49800;SDS011;35698;50.232;30.540;2023-05-10T00:25:33;5.74;;;3.65;;
49800;SDS011;35698;50.232;30.540;2023-05-10T00:26:36;5.61;;;3.44;;
49800;SDS011;35698;50.232;30.540;2023-05-10T00:27:39;6.09;;;3.47;;
49800;SDS011;35698;50.232;30.540;2023-05-10T00:29:13;6.77;;;3.82;;
49800;SDS011;35698;50.232;30.540;2023-05-10T00:30:16;5.63;;;3.72;;
49800;SDS011;35698;50.232;30.540;2023-05-10T00:42:18;7.49;;;4.77;;
49800;SDS011;35698;50.232;30.540;2023-05-10T00:43:29;4.94;;;4.03;;
49800;SDS011;35698;50.232;30.540;2023-05-10T00:44:32;6.59;;;4.01;;
49800;SDS011;35698;50.232;30.540;2023-05-10T00:45:36;6.58;;;3.87;;
49800;SDS011;35698;50.232;30.540;2023-05-10T00:46:49;5.88;;;3.77;;
49800;SDS011;35698;50.232;30.540;2023-05-10T00:47:52;6.44;;;4.06;;
49800;SDS011;35698;50.232;30.540;2023-05-10T00:48:56;4.29;;;3.64;;
49800;SDS011;35698;50.232;30.540;2023-05-10T00:50:17;6.61;;;4.45;;
49800;SDS011;35698;50.232;30.540;2023-05-10T00:51:21;7.45;;;4.24;;
49800;SDS011;35698;50.232;30.540;2023-05-10T00:52:36;5.81;;;4.27;;
49800;SDS011;35698;50.232;30.540;2023-05-10T00:53:39;9.09;;;4.22;;
49800;SDS011;35698;50.232;30.540;2023-05-10T00:54:54;7.30;;;3.80;;
49800;SDS011;35698;50.232;30.540;2023-05-10T00:55:58;6.89;;;4.32;;
49800;SDS011;35698;50.232;30.540;2023-05-10T00:57:20;8.76;;;4.09;;
49800;SDS011;35698;50.232;30.540;2023-05-10T00:58:44;7.32;;;4.03;;
49800;SDS011;35698;50.232;30.540;2023-05-10T00:59:48;5.31;;;4.03;;
49800;SDS011;35698;50.232;30.540;2023-05-10T01:01:10;7.17;;;4.32;;
49800;SDS011;35698;50.232;30.540;2023-05-10T01:02:29;6.47;;;4.33;;
49800;SDS011;35698;50.232;30.540;2023-05-10T01:03:32;6.01;;;4.19;;
49800;SDS011;35698;50.232;30.540;2023-05-10T01:04:54;9.50;;;6.07;;
49800;SDS011;35698;50.232;30.540;2023-05-10T01:06:08;13.59;;;4.65;;
49800;SDS011;35698;50.232;30.540;2023-05-10T01:07:11;7.56;;;4.84;;
49800;SDS011;35698;50.232;30.540;2023-05-10T01:08:33;5.88;;;4.27;;
49800;SDS011;35698;50.232;30.540;2023-05-10T01:09:45;6.41;;;3.98;;
49800;SDS011;35698;50.232;30.540;2023-05-10T01:10:49;6.80;;;4.63;;
49800;SDS011;35698;50.232;30.540;2023-05-10T01:12:10;8.91;;;4.88;;
49800;SDS011;35698;50.232;30.540;2023-05-10T01:13:17;8.94;;;4.10;;
49800;SDS011;35698;50.232;30.540;2023-05-10T01:14:45;7.15;;;4.96;;
49800;SDS011;35698;50.232;30.540;2023-05-10T01:15:50;6.24;;;4.60;;
49800;SDS011;35698;50.232;30.540;2023-05-10T01:17:11;9.16;;;4.64;;
49800;SDS011;35698;50.232;30.540;2023-05-10T01:18:15;8.63;;;4.23;;
49800;SDS011;35698;50.232;30.540;2023-05-10T01:19:34;10.84;;;5.56;;
49800;SDS011;35698;50.232;30.540;2023-05-10T01:20:40;8.66;;;4.83;;
49800;SDS011;35698;50.232;30.540;2023-05-10T01:35:10;9.12;;;4.73;;
49800;SDS011;35698;50.232;30.540;2023-05-10T01:36:28;10.51;;;5.53;;
49800;SDS011;35698;50.232;30.540;2023-05-10T01:37:45;7.50;;;4.63;;
49800;SDS011;35698;50.232;30.540;2023-05-10T01:45:07;8.21;;;4.55;;
49800;SDS011;35698;50.232;30.540;2023-05-10T01:46:17;6.56;;;4.72;;
49800;SDS011;35698;50.232;30.540;2023-05-10T01:47:36;6.66;;;4.98;;
49800;SDS011;35698;50.232;30.540;2023-05-10T01:48:43;9.19;;;4.69;;
49800;SDS011;35698;50.232;30.540;2023-05-10T01:50:01;8.49;;;5.99;;
49800;SDS011;35698;50.232;30.540;2023-05-10T01:51:07;7.69;;;4.86;;
49800;SDS011;35698;50.232;30.540;2023-05-10T01:52:33;5.44;;;4.22;;
49800;SDS011;35698;50.232;30.540;2023-05-10T01:53:58;7.30;;;4.97;;
49800;SDS011;35698;50.232;30.540;2023-05-10T01:55:15;11.44;;;4.57;;
49800;SDS011;35698;50.232;30.540;2023-05-10T01:56:22;9.44;;;4.55;;
49800;SDS011;35698;50.232;30.540;2023-05-10T01:57:31;11.00;;;5.14;;
49800;SDS011;35698;50.232;30.540;2023-05-10T01:58:55;6.48;;;4.80;;
49800;SDS011;35698;50.232;30.540;2023-05-10T02:00:11;9.40;;;4.75;;
49800;SDS011;35698;50.232;30.540;2023-05-10T02:01:18;6.73;;;4.12;;
49800;SDS011;35698;50.232;30.540;2023-05-10T02:02:24;7.59;;;4.72;;
49800;SDS011;35698;50.232;30.540;2023-05-10T02:03:49;8.68;;;4.49;;
49800;SDS011;35698;50.232;30.540;2023-05-10T02:05:08;5.83;;;4.56;;
49800;SDS011;35698;50.232;30.540;2023-05-10T02:06:14;7.07;;;4.59;;
49800;SDS011;35698;50.232;30.540;2023-05-10T02:07:19;6.14;;;4.50;;
49800;SDS011;35698;50.232;30.540;2023-05-10T02:08:42;6.51;;;4.07;;
49800;SDS011;35698;50.232;30.540;2023-05-10T02:10:01;6.72;;;4.39;;
49800;SDS011;35698;50.232;30.540;2023-05-10T02:11:07;9.37;;;4.79;;
49800;SDS011;35698;50.232;30.540;2023-05-10T02:12:13;12.63;;;4.63;;
49800;SDS011;35698;50.232;30.540;2023-05-10T02:13:36;7.32;;;4.66;;
49800;SDS011;35698;50.232;30.540;2023-05-10T02:14:59;6.30;;;3.97;;
49800;SDS011;35698;50.232;30.540;2023-05-10T02:16:03;9.65;;;4.27;;
49800;SDS011;35698;50.232;30.540;2023-05-10T02:17:09;7.68;;;4.92;;
49800;SDS011;35698;50.232;30.540;2023-05-10T02:18:12;8.88;;;4.79;;
49800;SDS011;35698;50.232;30.540;2023-05-10T02:19:27;5.79;;;4.44;;
49800;SDS011;35698;50.232;30.540;2023-05-10T02:20:33;7.41;;;4.46;;
49800;SDS011;35698;50.232;30.540;2023-05-10T02:21:49;6.58;;;4.55;;
49800;SDS011;35698;50.232;30.540;2023-05-10T02:22:54;7.62;;;4.71;;
49800;SDS011;35698;50.232;30.540;2023-05-10T02:24:00;7.41;;;4.53;;
49800;SDS011;35698;50.232;30.540;2023-05-10T02:25:17;5.34;;;4.41;;
49800;SDS011;35698;50.232;30.540;2023-05-10T02:26:22;8.41;;;5.68;;
49800;SDS011;35698;50.232;30.540;2023-05-10T02:27:37;7.08;;;4.73;;
49800;SDS011;35698;50.232;30.540;2023-05-10T02:28:42;5.69;;;4.37;;
49800;SDS011;35698;50.232;30.540;2023-05-10T02:29:46;7.36;;;4.98;;
49800;SDS011;35698;50.232;30.540;2023-05-10T02:30:58;7.43;;;4.38;;
49800;SDS011;35698;50.232;30.540;2023-05-10T02:32:03;7.26;;;4.88;;
49800;SDS011;35698;50.232;30.540;2023-05-10T02:33:26;6.27;;;4.57;;
49800;SDS011;35698;50.232;30.540;2023-05-10T02:34:31;8.17;;;4.50;;
49800;SDS011;35698;50.232;30.540;2023-05-10T02:35:36;6.80;;;4.42;;
49800;SDS011;35698;50.232;30.540;2023-05-10T02:36:41;6.13;;;4.42;;
49800;SDS011;35698;50.232;30.540;2023-05-10T02:37:45;8.70;;;4.88;;
49800;SDS011;35698;50.232;30.540;2023-05-10T02:39:04;10.81;;;5.53;;
49800;SDS011;35698;50.232;30.540;2023-05-10T02:40:09;7.43;;;4.64;;
49800;SDS011;35698;50.232;30.540;2023-05-10T02:41:14;7.00;;;4.10;;
49800;SDS011;35698;50.232;30.540;2023-05-10T02:42:31;9.02;;;4.73;;
49800;SDS011;35698;50.232;30.540;2023-05-10T02:43:36;8.11;;;4.36;;
49800;SDS011;35698;50.232;30.540;2023-05-10T02:44:55;7.91;;;4.22;;
49800;SDS011;35698;50.232;30.540;2023-05-10T02:46:07;6.30;;;4.55;;
49800;SDS011;35698;50.232;30.540;2023-05-10T02:47:10;6.74;;;4.17;;
49800;SDS011;35698;50.232;30.540;2023-05-10T02:48:14;8.87;;;3.97;;
49800;SDS011;35698;50.232;30.540;2023-05-10T02:49:29;6.35;;;4.16;;
49800;SDS011;35698;50.232;30.540;2023-05-10T02:50:33;7.52;;;4.22;;
49800;SDS011;35698;50.232;30.540;2023-05-10T02:51:40;5.77;;;4.11;;
49800;SDS011;35698;50.232;30.540;2023-05-10T02:52:56;6.42;;;4.30;;
49800;SDS011;35698;50.232;30.540;2023-05-10T02:54:03;6.74;;;4.29;;
49800;SDS011;35698;50.232;30.540;2023-05-10T02:55:22;7.28;;;4.46;;
49800;SDS011;35698;50.232;30.540;2023-05-10T02:56:30;9.04;;;4.67;;
49800;SDS011;35698;50.232;30.540;2023-05-10T02:57:40;6.73;;;4.12;;
49800;SDS011;35698;50.232;30.540;2023-05-10T02:58:54;6.45;;;4.49;;
49800;SDS011;35698;50.232;30.540;2023-05-10T02:59:58;6.12;;;4.21;;
49800;SDS011;35698;50.232;30.540;2023-05-10T03:01:01;6.45;;;4.27;;
49800;SDS011;35698;50.232;30.540;2023-05-10T03:02:20;6.08;;;4.52;;
49800;SDS011;35698;50.232;30.540;2023-05-10T03:03:24;6.15;;;3.73;;
49800;SDS011;35698;50.232;30.540;2023-05-10T03:15:13;5.40;;;3.73;;
49800;SDS011;35698;50.232;30.540;2023-05-10T03:19:32;6.62;;;4.10;;
49800;SDS011;35698;50.232;30.540;2023-05-10T03:20:57;6.02;;;4.07;;
49800;SDS011;35698;50.232;30.540;2023-05-10T03:22:06;6.36;;;4.01;;
49800;SDS011;35698;50.232;30.540;2023-05-10T03:23:34;4.39;;;3.98;;
49800;SDS011;35698;50.232;30.540;2023-05-10T03:24:46;6.87;;;4.82;;
49800;SDS011;35698;50.232;30.540;2023-05-10T03:26:12;10.97;;;6.50;;
49800;SDS011;35698;50.232;30.540;2023-05-10T03:27:27;12.85;;;7.45;;
49800;SDS011;35698;50.232;30.540;2023-05-10T03:28:33;14.07;;;8.40;;
49800;SDS011;35698;50.232;30.540;2023-05-10T03:29:55;14.02;;;8.81;;
49800;SDS011;35698;50.232;30.540;2023-05-10T03:31:18;16.59;;;9.38;;
49800;SDS011;35698;50.232;30.540;2023-05-10T03:32:33;20.03;;;10.50;;
49800;SDS011;35698;50.232;30.540;2023-05-10T03:33:45;18.20;;;11.61;;
49800;SDS011;35698;50.232;30.540;2023-05-10T03:35:09;10.15;;;7.13;;
49800;SDS011;35698;50.232;30.540;2023-05-10T03:36:13;10.86;;;5.92;;
49800;SDS011;35698;50.232;30.540;2023-05-10T03:37:17;6.88;;;4.34;;
49800;SDS011;35698;50.232;30.540;2023-05-10T03:49:20;15.85;;;8.83;;
49800;SDS011;35698;50.232;30.540;2023-05-10T03:50:24;14.70;;;8.94;;
49800;SDS011;35698;50.232;30.540;2023-05-10T03:51:44;15.58;;;9.59;;
49800;SDS011;35698;50.232;30.540;2023-05-10T03:52:47;16.16;;;10.14;;
49800;SDS011;35698;50.232;30.540;2023-05-10T03:53:55;17.42;;;10.46;;
49800;SDS011;35698;50.232;30.540;2023-05-10T03:55:10;21.35;;;10.11;;
49800;SDS011;35698;50.232;30.540;2023-05-10T03:56:14;17.19;;;10.56;;
49800;SDS011;35698;50.232;30.540;2023-05-10T03:57:26;15.74;;;9.29;;
49800;SDS011;35698;50.232;30.540;2023-05-10T03:58:29;16.46;;;9.80;;
49800;SDS011;35698;50.232;30.540;2023-05-10T03:59:33;13.89;;;9.91;;
49800;SDS011;35698;50.232;30.540;2023-05-10T04:00:36;14.93;;;10.45;;
49800;SDS011;35698;50.232;30.540;2023-05-10T04:01:48;18.11;;;10.95;;
49800;SDS011;35698;50.232;30.540;2023-05-10T04:02:52;19.50;;;10.92;;
49800;SDS011;35698;50.232;30.540;2023-05-10T04:03:55;14.96;;;9.54;;
49800;SDS011;35698;50.232;30.540;2023-05-10T04:04:59;17.69;;;11.18;;
49800;SDS011;35698;50.232;30.540;2023-05-10T04:06:20;19.48;;;10.21;;
49800;SDS011;35698;50.232;30.540;2023-05-10T04:07:23;13.65;;;9.31;;
49800;SDS011;35698;50.232;30.540;2023-05-10T04:08:43;15.92;;;8.69;;
49800;SDS011;35698;50.232;30.540;2023-05-10T04:09:47;16.41;;;8.94;;
49800;SDS011;35698;50.232;30.540;2023-05-10T04:11:10;15.26;;;8.12;;
49800;SDS011;35698;50.232;30.540;2023-05-10T04:12:14;16.04;;;8.04;;
49800;SDS011;35698;50.232;30.540;2023-05-10T04:13:33;14.74;;;8.90;;
49800;SDS011;35698;50.232;30.540;2023-05-10T04:14:36;16.00;;;9.15;;
49800;SDS011;35698;50.232;30.540;2023-05-10T04:15:57;15.56;;;8.27;;
49800;SDS011;35698;50.232;30.540;2023-05-10T04:17:00;13.22;;;8.13;;
49800;SDS011;35698;50.232;30.540;2023-05-10T04:18:22;13.12;;;7.74;;
49800;SDS011;35698;50.232;30.540;2023-05-10T04:19:28;12.07;;;8.01;;
49800;SDS011;35698;50.232;30.540;2023-05-10T04:20:34;12.02;;;7.64;;
49800;SDS011;35698;50.232;30.540;2023-05-10T04:21:37;14.50;;;7.57;;
49800;SDS011;35698;50.232;30.540;2023-05-10T04:22:51;9.55;;;6.85;;
49800;SDS011;35698;50.232;30.540;2023-05-10T04:23:55;11.89;;;7.82;;
49800;SDS011;35698;50.232;30.540;2023-05-10T04:25:16;11.39;;;6.93;;
49800;SDS011;35698;50.232;30.540;2023-05-10T04:26:19;11.16;;;5.81;;
49800;SDS011;35698;50.232;30.540;2023-05-10T04:27:41;9.06;;;5.84;;
49800;SDS011;35698;50.232;30.540;2023-05-10T04:28:55;8.23;;;4.97;;
49800;SDS011;35698;50.232;30.540;2023-05-10T04:29:59;9.44;;;5.24;;
49800;SDS011;35698;50.232;30.540;2023-05-10T04:31:20;6.34;;;4.60;;
49800;SDS011;35698;50.232;30.540;2023-05-10T04:32:38;10.77;;;4.89;;
49800;SDS011;35698;50.232;30.540;2023-05-10T04:33:42;6.83;;;4.36;;
49800;SDS011;35698;50.232;30.540;2023-05-10T04:35:03;8.27;;;4.52;;
49800;SDS011;35698;50.232;30.540;2023-05-10T04:36:20;7.73;;;4.72;;
49800;SDS011;35698;50.232;30.540;2023-05-10T04:37:23;6.04;;;4.21;;
49800;SDS011;35698;50.232;30.540;2023-05-10T04:38:45;10.67;;;4.58;;
49800;SDS011;35698;50.232;30.540;2023-05-10T04:39:48;6.09;;;5.10;;
49800;SDS011;35698;50.232;30.540;2023-05-10T04:41:09;7.68;;;4.74;;
49800;SDS011;35698;50.232;30.540;2023-05-10T04:42:13;5.83;;;4.53;;
49800;SDS011;35698;50.232;30.540;2023-05-10T04:43:19;8.83;;;4.33;;
49800;SDS011;35698;50.232;30.540;2023-05-10T04:44:23;6.45;;;4.52;;
49800;SDS011;35698;50.232;30.540;2023-05-10T04:45:35;28.69;;;4.52;;
49800;SDS011;35698;50.232;30.540;2023-05-10T04:46:57;29.04;;;5.02;;
49800;SDS011;35698;50.232;30.540;2023-05-10T04:48:10;12.73;;;4.92;;
49800;SDS011;35698;50.232;30.540;2023-05-10T04:49:15;7.30;;;4.25;;
49800;SDS011;35698;50.232;30.540;2023-05-10T04:50:29;11.17;;;4.42;;
49800;SDS011;35698;50.232;30.540;2023-05-10T04:51:32;7.58;;;4.24;;
49800;SDS011;35698;50.232;30.540;2023-05-10T04:57:43;7.37;;;4.48;;
49800;SDS011;35698;50.232;30.540;2023-05-10T04:59:40;9.61;;;4.62;;
49800;SDS011;35698;50.232;30.540;2023-05-10T05:02:17;7.20;;;4.83;;
49800;SDS011;35698;50.232;30.540;2023-05-10T05:04:42;9.34;;;4.99;;
49800;SDS011;35698;50.232;30.540;2023-05-10T05:05:59;14.39;;;5.82;;
49800;SDS011;35698;50.232;30.540;2023-05-10T05:07:02;14.57;;;5.78;;
49800;SDS011;35698;50.232;30.540;2023-05-10T05:08:14;14.86;;;5.17;;
49800;SDS011;35698;50.232;30.540;2023-05-10T05:09:17;10.03;;;5.21;;
49800;SDS011;35698;50.232;30.540;2023-05-10T05:10:38;8.70;;;4.93;;
49800;SDS011;35698;50.232;30.540;2023-05-10T05:12:03;7.82;;;4.55;;
49800;SDS011;35698;50.232;30.540;2023-05-10T05:13:07;8.14;;;4.72;;
49800;SDS011;35698;50.232;30.540;2023-05-10T05:14:28;7.75;;;5.52;;
49800;SDS011;35698;50.232;30.540;2023-05-10T05:15:39;10.38;;;4.13;;
49800;SDS011;35698;50.232;30.540;2023-05-10T05:16:43;11.07;;;4.34;;
49800;SDS011;35698;50.232;30.540;2023-05-10T05:18:04;8.36;;;4.92;;
49800;SDS011;35698;50.232;30.540;2023-05-10T05:19:17;12.43;;;4.06;;
49800;SDS011;35698;50.232;30.540;2023-05-10T05:20:20;6.10;;;3.46;;
49800;SDS011;35698;50.232;30.540;2023-05-10T05:21:42;7.95;;;4.63;;
49800;SDS011;35698;50.232;30.540;2023-05-10T05:23:05;7.53;;;3.29;;
49800;SDS011;35698;50.232;30.540;2023-05-10T05:24:23;6.12;;;3.28;;
49800;SDS011;35698;50.232;30.540;2023-05-10T05:25:26;7.53;;;3.29;;
49800;SDS011;35698;50.232;30.540;2023-05-10T05:26:48;5.68;;;3.71;;
49800;SDS011;35698;50.232;30.540;2023-05-10T05:28:10;5.47;;;3.76;;
49800;SDS011;35698;50.232;30.540;2023-05-10T05:29:33;7.26;;;3.78;;
49800;SDS011;35698;50.232;30.540;2023-05-10T05:30:49;6.96;;;3.81;;
49800;SDS011;35698;50.232;30.540;2023-05-10T05:31:52;5.91;;;3.73;;
49800;SDS011;35698;50.232;30.540;2023-05-10T05:33:13;9.01;;;3.62;;
49800;SDS011;35698;50.232;30.540;2023-05-10T05:34:35;4.96;;;3.22;;
49800;SDS011;35698;50.232;30.540;2023-05-10T05:35:49;3.95;;;3.05;;
49800;SDS011;35698;50.232;30.540;2023-05-10T05:36:52;6.59;;;3.58;;
49800;SDS011;35698;50.232;30.540;2023-05-10T05:38:12;11.33;;;3.88;;
49800;SDS011;35698;50.232;30.540;2023-05-10T05:39:15;8.58;;;3.32;;
49800;SDS011;35698;50.232;30.540;2023-05-10T05:40:27;2.83;;;2.55;;
49800;SDS011;35698;50.232;30.540;2023-05-10T05:41:30;6.17;;;3.09;;
49800;SDS011;35698;50.232;30.540;2023-05-10T05:42:41;3.64;;;2.86;;
49800;SDS011;35698;50.232;30.540;2023-05-10T05:43:44;8.20;;;2.85;;
49800;SDS011;35698;50.232;30.540;2023-05-10T05:44:56;5.14;;;2.67;;
49800;SDS011;35698;50.232;30.540;2023-05-10T05:45:59;4.75;;;3.14;;
49800;SDS011;35698;50.232;30.540;2023-05-10T05:47:10;15.15;;;3.50;;
49800;SDS011;35698;50.232;30.540;2023-05-10T05:48:14;3.72;;;2.77;;
49800;SDS011;35698;50.232;30.540;2023-05-10T05:49:25;4.93;;;2.84;;
49800;SDS011;35698;50.232;30.540;2023-05-10T05:50:28;3.54;;;2.59;;
49800;SDS011;35698;50.232;30.540;2023-05-10T05:51:39;5.54;;;2.93;;
49800;SDS011;35698;50.232;30.540;2023-05-10T05:52:42;3.64;;;2.71;;
49800;SDS011;35698;50.232;30.540;2023-05-10T05:53:56;6.43;;;2.94;;
49800;SDS011;35698;50.232;30.540;2023-05-10T05:55:04;4.86;;;2.72;;
49800;SDS011;35698;50.232;30.540;2023-05-10T05:56:29;5.12;;;2.94;;
49800;SDS011;35698;50.232;30.540;2023-05-10T05:57:41;5.75;;;2.51;;
49800;SDS011;35698;50.232;30.540;2023-05-10T05:58:44;4.21;;;2.40;;
49800;SDS011;35698;50.232;30.540;2023-05-10T05:59:55;4.63;;;2.91;;
49800;SDS011;35698;50.232;30.540;2023-05-10T06:00:59;5.75;;;3.04;;
49800;SDS011;35698;50.232;30.540;2023-05-10T06:02:02;3.31;;;2.61;;
49800;SDS011;35698;50.232;30.540;2023-05-10T06:03:13;5.39;;;2.82;;
49800;SDS011;35698;50.232;30.540;2023-05-10T06:04:17;4.33;;;2.69;;
49800;SDS011;35698;50.232;30.540;2023-05-10T06:05:21;3.47;;;2.52;;
49800;SDS011;35698;50.232;30.540;2023-05-10T06:07:02;7.63;;;2.86;;
49800;SDS011;35698;50.232;30.540;2023-05-10T06:08:32;9.99;;;2.65;;
49800;SDS011;35698;50.232;30.540;2023-05-10T06:09:38;5.83;;;2.43;;
49800;SDS011;35698;50.232;30.540;2023-05-10T06:11:05;6.69;;;2.46;;
49800;SDS011;35698;50.232;30.540;2023-05-10T06:12:08;4.27;;;2.69;;
49800;SDS011;35698;50.232;30.540;2023-05-10T06:13:21;6.86;;;2.58;;
49800;SDS011;35698;50.232;30.540;2023-05-10T06:14:24;3.36;;;2.38;;
49800;SDS011;35698;50.232;30.540;2023-05-10T06:15:27;3.84;;;2.69;;
49800;SDS011;35698;50.232;30.540;2023-05-10T06:16:40;3.57;;;2.38;;
49800;SDS011;35698;50.232;30.540;2023-05-10T06:17:52;5.16;;;3.08;;
49800;SDS011;35698;50.232;30.540;2023-05-10T06:18:55;6.47;;;2.60;;
49800;SDS011;35698;50.232;30.540;2023-05-10T06:20:07;7.59;;;2.94;;
49800;SDS011;35698;50.232;30.540;2023-05-10T06:21:11;5.16;;;3.21;;
49800;SDS011;35698;50.232;30.540;2023-05-10T06:22:23;6.66;;;2.77;;
49800;SDS011;35698;50.232;30.540;2023-05-10T06:23:35;8.40;;;2.88;;
49800;SDS011;35698;50.232;30.540;2023-05-10T06:24:38;7.92;;;2.62;;
49800;SDS011;35698;50.232;30.540;2023-05-10T06:25:46;7.32;;;2.52;;
49800;SDS011;35698;50.232;30.540;2023-05-10T06:26:58;4.52;;;2.72;;
49800;SDS011;35698;50.232;30.540;2023-05-10T06:28:01;4.81;;;2.85;;
49800;SDS011;35698;50.232;30.540;2023-05-10T06:29:04;6.31;;;2.83;;
49800;SDS011;35698;50.232;30.540;2023-05-10T06:30:16;8.43;;;2.83;;
49800;SDS011;35698;50.232;30.540;2023-05-10T06:31:19;3.67;;;2.47;;
49800;SDS011;35698;50.232;30.540;2023-05-10T06:32:31;10.83;;;2.85;;
49800;SDS011;35698;50.232;30.540;2023-05-10T06:33:34;13.28;;;7.07;;
49800;SDS011;35698;50.232;30.540;2023-05-10T06:34:46;9.84;;;3.12;;
49800;SDS011;35698;50.232;30.540;2023-05-10T06:35:49;7.59;;;3.62;;
49800;SDS011;35698;50.232;30.540;2023-05-10T06:37:00;7.59;;;2.53;;
49800;SDS011;35698;50.232;30.540;2023-05-10T06:38:11;6.10;;;2.71;;
49800;SDS011;35698;50.232;30.540;2023-05-10T06:39:14;6.01;;;2.54;;
49800;SDS011;35698;50.232;30.540;2023-05-10T06:40:18;10.53;;;3.17;;
49800;SDS011;35698;50.232;30.540;2023-05-10T06:41:25;4.08;;;2.49;;
49800;SDS011;35698;50.232;30.540;2023-05-10T06:42:36;4.39;;;2.54;;
49800;SDS011;35698;50.232;30.540;2023-05-10T06:43:39;5.49;;;2.91;;
49800;SDS011;35698;50.232;30.540;2023-05-10T06:44:53;5.37;;;2.69;;
49800;SDS011;35698;50.232;30.540;2023-05-10T06:45:56;6.68;;;2.71;;
49800;SDS011;35698;50.232;30.540;2023-05-10T06:47:00;6.29;;;3.11;;
49800;SDS011;35698;50.232;30.540;2023-05-10T06:48:03;7.21;;;2.51;;
49800;SDS011;35698;50.232;30.540;2023-05-10T06:49:16;5.19;;;2.46;;
49800;SDS011;35698;50.232;30.540;2023-05-10T06:50:20;5.83;;;3.61;;
49800;SDS011;35698;50.232;30.540;2023-05-10T06:51:31;6.67;;;3.35;;
49800;SDS011;35698;50.232;30.540;2023-05-10T06:52:34;3.39;;;2.46;;
49800;SDS011;35698;50.232;30.540;2023-05-10T06:53:38;5.38;;;2.76;;
49800;SDS011;35698;50.232;30.540;2023-05-10T06:54:41;5.21;;;2.76;;
49800;SDS011;35698;50.232;30.540;2023-05-10T06:55:54;6.03;;;2.83;;
49800;SDS011;35698;50.232;30.540;2023-05-10T06:56:57;12.67;;;3.01;;
49800;SDS011;35698;50.232;30.540;2023-05-10T06:58:17;4.26;;;2.42;;
49800;SDS011;35698;50.232;30.540;2023-05-10T06:59:20;8.66;;;2.33;;
49800;SDS011;35698;50.232;30.540;2023-05-10T07:00:41;5.13;;;2.57;;
49800;SDS011;35698;50.232;30.540;2023-05-10T07:01:52;5.65;;;2.47;;
49800;SDS011;35698;50.232;30.540;2023-05-10T07:02:56;5.57;;;2.62;;
49800;SDS011;35698;50.232;30.540;2023-05-10T07:04:17;3.03;;;2.31;;
49800;SDS011;35698;50.232;30.540;2023-05-10T07:05:28;3.11;;;2.29;;
49800;SDS011;35698;50.232;30.540;2023-05-10T07:06:31;3.84;;;2.37;;
49800;SDS011;35698;50.232;30.540;2023-05-10T07:07:52;10.83;;;2.80;;
49800;SDS011;35698;50.232;30.540;2023-05-10T07:09:06;6.03;;;2.52;;
49800;SDS011;35698;50.232;30.540;2023-05-10T07:10:10;5.33;;;2.71;;
49800;SDS011;35698;50.232;30.540;2023-05-10T07:11:31;3.69;;;2.39;;
49800;SDS011;35698;50.232;30.540;2023-05-10T07:12:52;5.91;;;2.54;;
49800;SDS011;35698;50.232;30.540;2023-05-10T07:13:55;5.83;;;2.33;;
49800;SDS011;35698;50.232;30.540;2023-05-10T07:15:16;3.89;;;2.22;;
49800;SDS011;35698;50.232;30.540;2023-05-10T07:16:20;3.17;;;2.06;;
49800;SDS011;35698;50.232;30.540;2023-05-10T07:17:24;5.61;;;2.70;;
49800;SDS011;35698;50.232;30.540;2023-05-10T07:18:41;7.96;;;2.25;;
49800;SDS011;35698;50.232;30.540;2023-05-10T07:19:44;3.92;;;2.24;;
49800;SDS011;35698;50.232;30.540;2023-05-10T07:21:09;10.61;;;2.84;;
49800;SDS011;35698;50.232;30.540;2023-05-10T07:23:04;7.42;;;2.29;;
49800;SDS011;35698;50.232;30.540;2023-05-10T07:24:32;4.27;;;2.33;;
49800;SDS011;35698;50.232;30.540;2023-05-10T07:25:47;4.96;;;2.40;;
49800;SDS011;35698;50.232;30.540;2023-05-10T07:27:13;4.52;;;2.86;;
49800;SDS011;35698;50.232;30.540;2023-05-10T07:39:36;5.04;;;2.64;;
49800;SDS011;35698;50.232;30.540;2023-05-10T07:41:11;5.84;;;2.28;;
49800;SDS011;35698;50.232;30.540;2023-05-10T07:43:37;4.06;;;2.23;;
49800;SDS011;35698;50.232;30.540;2023-05-10T07:44:43;7.31;;;1.90;;
49800;SDS011;35698;50.232;30.540;2023-05-10T07:46:06;2.76;;;1.89;;
49800;SDS011;35698;50.232;30.540;2023-05-10T07:47:26;5.06;;;1.89;;
49800;SDS011;35698;50.232;30.540;2023-05-10T07:48:31;7.03;;;2.08;;
49800;SDS011;35698;50.232;30.540;2023-05-10T07:49:46;4.65;;;1.96;;
49800;SDS011;35698;50.232;30.540;2023-05-10T07:50:49;5.71;;;2.10;;
49800;SDS011;35698;50.232;30.540;2023-05-10T07:51:53;5.04;;;2.09;;
49800;SDS011;35698;50.232;30.540;2023-05-10T07:53:04;4.83;;;1.95;;
49800;SDS011;35698;50.232;30.540;2023-05-10T07:54:12;3.09;;;2.66;;
49800;SDS011;35698;50.232;30.540;2023-05-10T07:55:29;2.76;;;2.06;;
49800;SDS011;35698;50.232;30.540;2023-05-10T07:56:34;6.91;;;2.22;;
49800;SDS011;35698;50.232;30.540;2023-05-10T07:58:10;3.06;;;2.17;;
49800;SDS011;35698;50.232;30.540;2023-05-10T07:59:17;2.30;;;1.91;;
49800;SDS011;35698;50.232;30.540;2023-05-10T08:00:35;4.97;;;1.83;;
49800;SDS011;35698;50.232;30.540;2023-05-10T08:01:39;4.17;;;2.24;;
49800;SDS011;35698;50.232;30.540;2023-05-10T08:02:49;5.34;;;1.98;;
49800;SDS011;35698;50.232;30.540;2023-05-10T08:04:20;3.78;;;1.73;;
49800;SDS011;35698;50.232;30.540;2023-05-10T08:05:23;7.26;;;1.95;;
49800;SDS011;35698;50.232;30.540;2023-05-10T08:06:44;6.03;;;2.38;;
49800;SDS011;35698;50.232;30.540;2023-05-10T08:07:47;6.62;;;2.66;;
49800;SDS011;35698;50.232;30.540;2023-05-10T08:09:09;4.54;;;2.01;;
49800;SDS011;35698;50.232;30.540;2023-05-10T08:10:21;7.03;;;2.17;;
49800;SDS011;35698;50.232;30.540;2023-05-10T08:11:25;3.08;;;1.80;;
49800;SDS011;35698;50.232;30.540;2023-05-10T08:12:46;6.32;;;2.14;;
49800;SDS011;35698;50.232;30.540;2023-05-10T08:14:00;3.52;;;2.29;;
49800;SDS011;35698;50.232;30.540;2023-05-10T08:15:04;2.52;;;1.72;;
49800;SDS011;35698;50.232;30.540;2023-05-10T08:16:26;2.99;;;1.95;;
49800;SDS011;35698;50.232;30.540;2023-05-10T08:17:43;5.45;;;2.00;;
49800;SDS011;35698;50.232;30.540;2023-05-10T08:18:55;4.62;;;2.08;;
49800;SDS011;35698;50.232;30.540;2023-05-10T08:19:58;4.45;;;1.98;;
49800;SDS011;35698;50.232;30.540;2023-05-10T08:21:19;4.03;;;1.89;;
49800;SDS011;35698;50.232;30.540;2023-05-10T08:22:41;3.77;;;2.44;;
49800;SDS011;35698;50.232;30.540;2023-05-10T08:23:52;5.43;;;2.37;;
49800;SDS011;35698;50.232;30.540;2023-05-10T08:25:04;5.01;;;1.86;;
49800;SDS011;35698;50.232;30.540;2023-05-10T08:26:24;7.82;;;1.85;;
49800;SDS011;35698;50.232;30.540;2023-05-10T08:27:46;8.11;;;2.39;;
49800;SDS011;35698;50.232;30.540;2023-05-10T08:29:07;3.39;;;1.62;;
49800;SDS011;35698;50.232;30.540;2023-05-10T08:30:19;2.46;;;1.72;;
49800;SDS011;35698;50.232;30.540;2023-05-10T08:31:22;3.74;;;1.84;;
49800;SDS011;35698;50.232;30.540;2023-05-10T08:32:44;3.60;;;2.03;;
49800;SDS011;35698;50.232;30.540;2023-05-10T08:34:05;5.76;;;2.44;;
49800;SDS011;35698;50.232;30.540;2023-05-10T08:35:27;4.42;;;2.01;;
49800;SDS011;35698;50.232;30.540;2023-05-10T08:36:31;7.09;;;2.09;;
49800;SDS011;35698;50.232;30.540;2023-05-10T08:37:47;5.93;;;2.22;;